Time;durP1;ratioP1;P1;durP2;ratioP2;P2;SDS_P1;SDS_P2;PMS_P1;PMS_P2;Temp;Humidity;BMP_temperature;BMP_pressure;BME280_temperature;BME280_humidity;BME280_pressure;Samples;Min_cycle;Max_cycle;Signal;HPM_P1;HPM_P2
2023/06/05 00:00:29;;;;;;;7.15;6.55;;;15.60;80.80;;;;;;4992841;28;20046;-67
2023/06/05 00:02:57;;;;;;;7.38;6.68;;;15.60;80.90;;;;;;4992811;28;20050;-66
2023/06/05 00:05:26;;;;;;;7.53;6.80;;;15.60;81.20;;;;;;4994835;28;20037;-67
2023/06/05 00:07:53;;;;;;;7.78;6.97;;;15.50;81.50;;;;;;5013426;28;20050;-67
2023/06/05 00:10:21;;;;;;;7.65;6.95;;;15.50;82.00;;;;;;4976673;28;20113;-67
2023/06/05 00:12:49;;;;;;;7.30;6.60;;;15.40;82.30;;;;;;4992903;28;20045;-67
2023/06/05 00:15:17;;;;;;;7.80;6.50;;;15.40;82.50;;;;;;4996797;28;20045;-66
2023/06/05 00:17:45;;;;;;;6.88;6.28;;;15.40;82.70;;;;;;4980184;28;20042;-67
2023/06/05 00:20:13;;;;;;;7.47;6.78;;;15.40;83.00;;;;;;5013518;28;20056;-67
2023/06/05 00:22:40;;;;;;;8.40;6.80;;;15.30;83.20;;;;;;5014265;28;20034;-67
2023/06/05 00:25:08;;;;;;;6.93;6.22;;;15.30;83.40;;;;;;4996009;28;20046;-67
2023/06/05 00:27:35;;;;;;;6.80;6.10;;;15.20;84.40;;;;;;4996263;28;20180;-68
2023/06/05 00:30:03;;;;;;;6.78;6.07;;;15.20;83.90;;;;;;5001353;28;20049;-67
2023/06/05 00:32:31;;;;;;;7.40;6.80;;;15.20;84.30;;;;;;4994711;28;20042;-67
2023/06/05 00:34:58;;;;;;;6.75;6.05;;;15.20;84.60;;;;;;5011203;28;20042;-67
2023/06/05 00:37:26;;;;;;;7.18;6.50;;;15.10;84.60;;;;;;4995114;28;20042;-67
2023/06/05 00:39:54;;;;;;;7.32;6.50;;;15.10;84.90;;;;;;4979330;28;20502;-68
2023/06/05 00:42:22;;;;;;;7.40;6.22;;;15.10;85.50;;;;;;5020732;28;20042;-67
2023/06/05 00:44:49;;;;;;;6.72;6.10;;;15.00;85.00;;;;;;5003165;28;20497;-68
2023/06/05 00:47:17;;;;;;;7.10;6.32;;;15.00;85.10;;;;;;5024564;28;20045;-67
2023/06/05 00:49:45;;;;;;;6.60;6.00;;;15.00;85.00;;;;;;5024860;28;20045;-67
2023/06/05 00:52:12;;;;;;;7.13;6.43;;;14.90;85.30;;;;;;5005088;28;20077;-67
2023/06/05 00:54:41;;;;;;;7.78;6.28;;;14.90;85.40;;;;;;5009605;28;20089;-67
2023/06/05 00:57:09;;;;;;;7.03;6.32;;;14.90;85.50;;;;;;5017484;28;20049;-67
2023/06/05 00:59:37;;;;;;;7.15;6.43;;;14.80;85.60;;;;;;5013066;28;20046;-67
2023/06/05 01:02:06;;;;;;;7.35;6.65;;;14.80;86.00;;;;;;5013447;28;20042;-67
2023/06/05 01:04:36;;;;;;;7.20;6.30;;;14.80;86.10;;;;;;4995238;28;20030;-67
2023/06/05 01:07:05;;;;;;;6.70;5.95;;;14.80;86.30;;;;;;4994989;28;20042;-67
2023/06/05 01:09:33;;;;;;;7.03;6.32;;;14.70;86.40;;;;;;5001887;28;20112;-67
2023/06/05 01:12:14;;;;;;;7.85;6.10;;;14.70;86.90;;;;;;5026030;28;20125;-67
2023/06/05 01:14:48;;;;;;;8.48;6.32;;;14.70;87.50;;;;;;4994372;28;20132;-67
2023/06/05 01:17:20;;;;;;;6.80;6.13;;;14.60;86.90;;;;;;5010545;28;20062;-67
2023/06/05 01:19:49;;;;;;;7.05;6.35;;;14.70;87.00;;;;;;4991300;28;20039;-67
2023/06/05 01:22:17;;;;;;;6.65;6.05;;;14.70;87.20;;;;;;5012327;28;20134;-68
2023/06/05 01:24:45;;;;;;;6.85;6.15;;;14.60;87.30;;;;;;5014217;28;20516;-67
2023/06/05 01:27:18;;;;;;;6.57;5.97;;;14.60;87.10;;;;;;4997326;28;20064;-67
2023/06/05 01:29:48;;;;;;;6.68;5.85;;;14.60;87.20;;;;;;4980673;28;20073;-67
2023/06/05 01:32:24;;;;;;;6.57;5.97;;;14.60;87.20;;;;;;5001530;28;20061;-67
2023/06/05 01:34:53;;;;;;;7.10;6.40;;;14.60;87.00;;;;;;5015936;28;20125;-66
2023/06/05 01:37:24;;;;;;;7.05;6.45;;;14.60;87.10;;;;;;5003650;28;20068;-66
2023/06/05 01:39:55;;;;;;;7.60;6.90;;;14.50;87.10;;;;;;5009275;28;20524;-66
2023/06/05 01:42:25;;;;;;;7.43;6.72;;;14.60;87.30;;;;;;5007918;28;20038;-66
2023/06/05 01:44:54;;;;;;;7.22;6.53;;;14.50;87.50;;;;;;4981116;28;20049;-67
2023/06/05 01:47:23;;;;;;;7.68;6.70;;;14.50;87.70;;;;;;4996179;28;20041;-67
2023/06/05 01:49:50;;;;;;;7.68;6.97;;;14.50;87.90;;;;;;4996097;28;20034;-67
2023/06/05 01:52:18;;;;;;;8.80;6.78;;;14.40;87.90;;;;;;4994482;28;20077;-67
2023/06/05 01:54:48;;;;;;;7.65;6.95;;;14.40;88.00;;;;;;5009741;28;20033;-66
2023/06/05 01:57:16;;;;;;;8.55;7.28;;;14.40;88.10;;;;;;5012133;28;20042;-67
2023/06/05 01:59:45;;;;;;;7.82;7.13;;;14.40;88.50;;;;;;4995244;28;20129;-66
2023/06/05 02:02:14;;;;;;;7.40;6.70;;;14.30;89.00;;;;;;5003804;28;20496;-67
2023/06/05 02:04:42;;;;;;;7.07;6.32;;;14.30;89.40;;;;;;4978617;28;20169;-67
2023/06/05 02:07:11;;;;;;;7.20;6.45;;;14.30;89.70;;;;;;5017447;28;20125;-66
2023/06/05 02:09:41;;;;;;;7.40;6.70;;;14.20;89.60;;;;;;4993366;28;20413;-68
2023/06/05 02:12:08;;;;;;;9.80;6.60;;;14.20;89.60;;;;;;4978931;28;20073;-67
2023/06/05 02:14:37;;;;;;;7.97;6.50;;;14.20;89.90;;;;;;4982639;28;20509;-66
2023/06/05 02:17:06;;;;;;;7.45;6.75;;;14.20;89.90;;;;;;4985860;28;20140;-66
2023/06/05 02:19:34;;;;;;;7.28;6.57;;;14.10;89.90;;;;;;4977125;28;20503;-67
2023/06/05 02:22:01;;;;;;;8.02;7.22;;;14.10;90.00;;;;;;5011020;28;20037;-66
2023/06/05 02:24:29;;;;;;;9.10;7.10;;;14.10;89.80;;;;;;4995220;28;20046;-67
2023/06/05 02:26:56;;;;;;;9.52;6.60;;;14.10;89.70;;;;;;4995616;28;20104;-67
2023/06/05 02:29:24;;;;;;;7.25;6.55;;;14.10;89.70;;;;;;5010327;28;20065;-67
2023/06/05 02:31:51;;;;;;;9.27;6.80;;;14.10;89.70;;;;;;5001401;28;20050;-67
2023/06/05 02:34:19;;;;;;;7.43;6.72;;;14.10;89.70;;;;;;4990920;28;20470;-67
2023/06/05 02:36:47;;;;;;;9.32;7.35;;;14.10;89.80;;;;;;5013901;28;20519;-67
2023/06/05 02:39:15;;;;;;;6.88;6.28;;;14.10;90.00;;;;;;5000185;28;20390;-67
2023/06/05 02:41:44;;;;;;;8.50;7.00;;;14.00;90.20;;;;;;5026306;28;20046;-67
2023/06/05 02:44:12;;;;;;;6.97;6.28;;;14.00;90.40;;;;;;4977932;28;20405;-67
2023/06/05 02:46:40;;;;;;;7.25;6.55;;;14.00;90.60;;;;;;4992711;28;20298;-66
2023/06/05 02:49:07;;;;;;;7.65;6.70;;;13.90;90.60;;;;;;4980876;28;20050;-68
2023/06/05 02:51:35;;;;;;;7.10;6.50;;;13.90;90.50;;;;;;5006199;28;20056;-69
2023/06/05 02:54:04;;;;;;;7.32;6.63;;;13.90;90.70;;;;;;4977551;28;20137;-67
2023/06/05 02:56:32;;;;;;;7.28;6.57;;;13.90;90.80;;;;;;5003088;28;20042;-67
2023/06/05 02:59:02;;;;;;;7.43;6.70;;;13.90;91.10;;;;;;4973652;28;20042;-67
2023/06/05 03:01:34;;;;;;;7.85;6.65;;;13.90;91.20;;;;;;4997147;28;20050;-67
2023/06/05 03:04:06;;;;;;;7.05;6.30;;;13.80;91.30;;;;;;4992408;28;20049;-66
2023/06/05 03:06:36;;;;;;;7.07;6.40;;;13.80;91.30;;;;;;5000928;28;20436;-66
2023/06/05 03:09:07;;;;;;;8.63;6.95;;;13.80;91.50;;;;;;4975924;28;20125;-68
2023/06/05 03:11:35;;;;;;;7.60;7.00;;;13.80;91.80;;;;;;4999250;28;20133;-66
2023/06/05 03:14:02;;;;;;;10.45;7.03;;;13.80;91.80;;;;;;5001207;28;20037;-66
2023/06/05 03:16:41;;;;;;;9.40;6.77;;;13.70;92.20;;;;;;4993104;28;20128;-67
2023/06/05 03:19:10;;;;;;;7.70;7.00;;;13.70;92.50;;;;;;5008103;28;20125;-67
2023/06/05 03:21:41;;;;;;;7.80;7.00;;;13.70;92.90;;;;;;4971347;28;20053;-68
2023/06/05 03:24:12;;;;;;;7.97;6.43;;;13.70;93.20;;;;;;4990295;28;20177;-68
2023/06/05 03:26:43;;;;;;;8.48;6.65;;;13.70;93.50;;;;;;4998654;28;20042;-66
2023/06/05 03:29:12;;;;;;;6.95;6.35;;;13.70;93.80;;;;;;5007644;28;20077;-67
2023/06/05 03:31:40;;;;;;;8.68;6.47;;;13.70;94.10;;;;;;5021013;28;20117;-67
2023/06/05 03:34:07;;;;;;;9.13;6.32;;;13.70;94.30;;;;;;4994055;28;20056;-67
2023/06/05 03:36:37;;;;;;;7.75;7.05;;;13.70;94.40;;;;;;4991757;28;20038;-67
2023/06/05 03:39:06;;;;;;;8.00;7.18;;;13.70;94.70;;;;;;4982648;28;20141;-67
2023/06/05 03:41:36;;;;;;;9.23;6.70;;;13.70;95.00;;;;;;4992110;28;20048;-67
2023/06/05 03:44:04;;;;;;;8.23;6.45;;;13.80;95.20;;;;;;4999269;28;20066;-67
2023/06/05 03:46:33;;;;;;;8.27;6.03;;;13.70;95.80;;;;;;4987782;28;20390;-68
2023/06/05 03:49:08;;;;;;;7.95;6.40;;;13.70;96.20;;;;;;4991988;28;20034;-68
2023/06/05 03:51:37;;;;;;;6.95;6.25;;;13.80;96.70;;;;;;4985061;28;20057;-67
2023/06/05 03:54:05;;;;;;;8.80;6.40;;;13.80;96.90;;;;;;5012386;28;20053;-68
2023/06/05 03:56:34;;;;;;;8.60;6.25;;;13.90;97.20;;;;;;5000931;28;20057;-67
2023/06/05 03:59:16;;;;;;;7.95;6.30;;;13.80;97.60;;;;;;4986177;28;20046;-67
2023/06/05 04:01:43;;;;;;;7.63;6.93;;;13.90;97.60;;;;;;5009774;28;20464;-67
2023/06/05 04:04:11;;;;;;;8.63;6.28;;;14.00;98.20;;;;;;5010949;28;20053;-68
2023/06/05 04:06:40;;;;;;;7.90;6.68;;;14.00;98.20;;;;;;4997533;28;20049;-67
2023/06/05 04:09:12;;;;;;;9.30;7.00;;;14.10;98.30;;;;;;4974464;28;20220;-68
2023/06/05 04:11:44;;;;;;;8.02;6.68;;;14.10;98.70;;;;;;4984649;28;20046;-67
2023/06/05 04:14:12;;;;;;;7.32;6.63;;;14.20;99.10;;;;;;5004312;28;20520;-67
2023/06/05 04:16:42;;;;;;;8.35;7.55;;;14.30;99.00;;;;;;4998700;28;20046;-67
2023/06/05 04:19:15;;;;;;;9.80;7.20;;;14.40;99.10;;;;;;5002719;28;20057;-66
2023/06/05 04:21:44;;;;;;;10.93;7.13;;;14.50;99.10;;;;;;4999317;28;20039;-67
2023/06/05 04:24:12;;;;;;;8.68;7.15;;;14.50;98.60;;;;;;5016380;28;20033;-66
2023/06/05 04:26:43;;;;;;;7.93;7.20;;;14.50;98.70;;;;;;5024415;28;20045;-67
2023/06/05 04:29:15;;;;;;;8.93;7.30;;;14.60;98.50;;;;;;5001665;28;20103;-67
2023/06/05 04:31:47;;;;;;;8.45;7.47;;;14.60;98.40;;;;;;5009088;28;20133;-67
2023/06/05 04:34:17;;;;;;;;;;;14.70;98.80;;;;;;5007881;28;20076;-67
2023/06/05 04:36:49;;;;;;;7.72;7.00;;;14.80;98.90;;;;;;5011750;28;20551;-66
2023/06/05 04:39:19;;;;;;;7.97;7.25;;;14.90;97.80;;;;;;4992406;28;20406;-67
2023/06/05 04:41:47;;;;;;;7.28;6.57;;;14.90;97.10;;;;;;5008469;28;20489;-67
2023/06/05 04:44:31;;;;;;;10.85;8.25;;;15.00;96.60;;;;;;4987455;28;20401;-67
2023/06/05 04:47:00;;;;;;;9.18;8.00;;;15.10;96.00;;;;;;5009963;28;20385;-68
2023/06/05 04:49:28;;;;;;;7.75;7.05;;;15.20;95.60;;;;;;4993315;28;20038;-67
2023/06/05 04:51:56;;;;;;;7.50;6.80;;;15.30;95.00;;;;;;4979456;28;20433;-68
2023/06/05 04:54:25;;;;;;;8.15;7.35;;;15.30;94.70;;;;;;4995992;28;20096;-68
2023/06/05 04:56:53;;;;;;;8.18;6.97;;;15.40;94.50;;;;;;4996452;28;20065;-67
2023/06/05 04:59:21;;;;;;;7.80;7.10;;;15.40;94.30;;;;;;5009567;28;20080;-67
2023/06/05 05:01:50;;;;;;;7.90;7.13;;;15.50;94.20;;;;;;4996123;28;20065;-66
2023/06/05 05:04:20;;;;;;;10.05;7.38;;;15.60;94.00;;;;;;4995799;28;20104;-67
2023/06/05 05:06:51;;;;;;;7.55;6.85;;;15.60;93.90;;;;;;4995821;28;20470;-66
2023/06/05 05:09:21;;;;;;;7.82;7.13;;;15.70;93.60;;;;;;4980221;28;20417;-66
2023/06/05 05:11:49;;;;;;;7.55;6.85;;;15.80;93.40;;;;;;5002575;28;20080;-66
2023/06/05 05:14:17;;;;;;;7.25;6.65;;;15.90;93.20;;;;;;4994967;28;20490;-66
2023/06/05 05:16:46;;;;;;;7.15;6.43;;;16.00;93.10;;;;;;4997579;28;20073;-66
2023/06/05 05:19:13;;;;;;;7.30;6.60;;;16.00;93.10;;;;;;4995202;28;20568;-66
2023/06/05 05:21:41;;;;;;;7.55;6.80;;;16.10;93.20;;;;;;4995308;28;20281;-67
2023/06/05 05:24:09;;;;;;;8.73;7.28;;;16.10;93.20;;;;;;4995457;28;20383;-66
2023/06/05 05:26:39;;;;;;;8.63;7.75;;;16.20;93.40;;;;;;4960288;28;20039;-67
2023/06/05 05:29:07;;;;;;;8.20;7.28;;;16.20;93.40;;;;;;4993648;28;20437;-66
2023/06/05 05:31:35;;;;;;;9.63;7.40;;;16.30;93.20;;;;;;4995348;28;20057;-66
2023/06/05 05:34:03;;;;;;;10.25;7.72;;;16.40;93.20;;;;;;4994247;28;20050;-66
2023/06/05 05:36:30;;;;;;;9.38;7.10;;;16.40;93.20;;;;;;4991448;28;20769;-66
2023/06/05 05:38:58;;;;;;;12.30;7.30;;;16.50;93.30;;;;;;4994525;28;20064;-67
2023/06/05 05:41:26;;;;;;;8.07;6.82;;;16.60;93.40;;;;;;5012638;28;20050;-66
2023/06/05 05:43:54;;;;;;;8.60;6.90;;;16.60;93.50;;;;;;4995057;28;20038;-67
2023/06/05 05:46:21;;;;;;;7.50;6.80;;;16.70;93.50;;;;;;4994718;28;20034;-67
2023/06/05 05:48:51;;;;;;;10.30;6.82;;;16.70;93.50;;;;;;4994771;28;20449;-66
2023/06/05 05:51:19;;;;;;;7.97;6.90;;;16.90;93.70;;;;;;4990111;28;20049;-67
2023/06/05 05:53:46;;;;;;;9.65;6.80;;;16.90;93.70;;;;;;5000923;28;20112;-67
2023/06/05 05:56:14;;;;;;;8.35;7.05;;;16.90;93.80;;;;;;4987511;28;20054;-66
2023/06/05 05:58:42;;;;;;;9.65;7.38;;;17.00;93.70;;;;;;5011900;28;20046;-67
2023/06/05 06:01:11;;;;;;;10.40;7.45;;;17.00;93.70;;;;;;4978811;28;20062;-66
2023/06/05 06:03:38;;;;;;;9.00;6.88;;;17.00;93.60;;;;;;4991040;28;20050;-67
2023/06/05 06:06:07;;;;;;;12.25;6.93;;;17.10;93.80;;;;;;4985075;28;20076;-67
2023/06/05 06:08:35;;;;;;;9.02;7.05;;;17.20;94.10;;;;;;5012239;28;20046;-67
2023/06/05 06:11:06;;;;;;;8.18;7.10;;;17.30;94.10;;;;;;5011671;28;20446;-66
2023/06/05 06:13:34;;;;;;;11.90;6.75;;;17.50;93.90;;;;;;5009646;28;20034;-67
2023/06/05 06:16:02;;;;;;;8.80;6.35;;;17.60;93.30;;;;;;4994621;28;20034;-67
2023/06/05 06:18:30;;;;;;;8.20;6.68;;;17.80;92.80;;;;;;4994569;28;20046;-67
2023/06/05 06:20:58;;;;;;;7.20;6.50;;;18.00;92.30;;;;;;5010935;28;20054;-67
2023/06/05 06:23:26;;;;;;;8.25;7.28;;;18.10;91.70;;;;;;5023666;28;20073;-67
2023/06/05 06:25:53;;;;;;;10.23;6.75;;;18.30;91.20;;;;;;5011796;28;20120;-68
2023/06/05 06:28:21;;;;;;;13.77;6.40;;;18.50;91.20;;;;;;5003247;28;20061;-67
2023/06/05 06:30:48;;;;;;;8.95;6.68;;;18.60;91.10;;;;;;5010404;28;20103;-67
2023/06/05 06:33:16;;;;;;;8.25;7.00;;;18.70;90.70;;;;;;5009888;28;20042;-67
2023/06/05 06:35:43;;;;;;;8.48;6.75;;;18.80;90.70;;;;;;4993598;28;20145;-67
2023/06/05 06:38:11;;;;;;;7.57;6.50;;;19.00;90.80;;;;;;5011502;28;20054;-68
2023/06/05 06:40:39;;;;;;;8.57;6.68;;;19.10;90.70;;;;;;4989605;28;20038;-67
2023/06/05 06:43:06;;;;;;;7.78;6.60;;;19.20;90.60;;;;;;4992963;28;20132;-67
2023/06/05 06:45:40;;;;;;;7.75;6.68;;;19.30;90.70;;;;;;4992531;28;20098;-67
2023/06/05 06:48:07;;;;;;;9.18;6.90;;;19.30;91.00;;;;;;4993857;28;20046;-67
2023/06/05 06:50:35;;;;;;;6.95;6.30;;;19.40;91.20;;;;;;4999931;28;20038;-67
2023/06/05 06:53:03;;;;;;;8.88;6.50;;;19.50;91.10;;;;;;5011249;28;20041;-67
2023/06/05 06:55:31;;;;;;;7.45;6.35;;;19.60;91.00;;;;;;4977766;28;20042;-67
2023/06/05 06:57:59;;;;;;;7.15;6.38;;;19.60;91.00;;;;;;4985636;28;20116;-68
2023/06/05 07:00:27;;;;;;;7.70;7.00;;;19.70;91.00;;;;;;4992981;28;20049;-67
2023/06/05 07:02:56;;;;;;;7.88;6.70;;;19.90;91.20;;;;;;5011121;28;20478;-67
2023/06/05 07:05:24;;;;;;;7.50;6.70;;;20.00;91.10;;;;;;4992227;28;20120;-67
2023/06/05 07:07:51;;;;;;;8.65;7.35;;;20.00;91.20;;;;;;5000144;28;20034;-67
2023/06/05 07:10:18;;;;;;;11.73;9.55;;;20.10;91.20;;;;;;5007647;28;20116;-67
2023/06/05 07:12:46;;;;;;;11.90;8.07;;;20.20;91.60;;;;;;4992174;28;20128;-67
2023/06/05 07:15:13;;;;;;;9.05;7.35;;;20.30;91.90;;;;;;5001989;28;20073;-67
2023/06/05 07:17:41;;;;;;;10.25;7.22;;;20.50;91.90;;;;;;5023371;28;20080;-67
2023/06/05 07:20:09;;;;;;;8.30;7.50;;;20.60;91.80;;;;;;4994037;28;20037;-67
2023/06/05 07:22:36;;;;;;;11.48;7.80;;;20.60;91.80;;;;;;5015150;28;20033;-67
2023/06/05 07:25:04;;;;;;;9.73;7.10;;;20.70;91.80;;;;;;4991492;28;20092;-67
2023/06/05 07:27:32;;;;;;;8.30;7.10;;;20.80;91.70;;;;;;5014017;28;20029;-67
2023/06/05 07:29:59;;;;;;;8.90;7.22;;;20.90;91.70;;;;;;5004632;28;20421;-67
2023/06/05 07:32:27;;;;;;;10.73;7.25;;;21.00;92.00;;;;;;5008118;28;20044;-66
2023/06/05 07:34:54;;;;;;;13.43;10.90;;;21.10;91.60;;;;;;5008420;28;20140;-67
2023/06/05 07:37:22;;;;;;;8.73;7.88;;;21.20;91.70;;;;;;4997246;28;20046;-67
2023/06/05 07:39:51;;;;;;;12.27;7.40;;;21.30;91.60;;;;;;5009535;28;20034;-69
2023/06/05 07:42:18;;;;;;;7.97;7.18;;;21.40;91.40;;;;;;5011576;28;20125;-66
2023/06/05 07:44:46;;;;;;;8.43;7.20;;;21.40;91.50;;;;;;4979587;28;20143;-68
2023/06/05 07:47:13;;;;;;;10.30;7.75;;;21.50;91.50;;;;;;5007925;28;20053;-68
2023/06/05 07:49:41;;;;;;;11.77;8.00;;;21.60;91.40;;;;;;4994839;28;20569;-66
2023/06/05 07:52:08;;;;;;;8.18;7.40;;;21.60;91.10;;;;;;5008886;28;20096;-66
2023/06/05 07:54:36;;;;;;;8.57;7.78;;;21.80;91.10;;;;;;4992977;28;20570;-66
2023/06/05 07:57:07;;;;;;;7.85;7.05;;;21.90;90.90;;;;;;4989471;28;20502;-66
2023/06/05 07:59:35;;;;;;;11.18;7.28;;;21.90;90.60;;;;;;5008658;28;20112;-67
2023/06/05 08:02:03;;;;;;;8.15;7.32;;;21.90;90.70;;;;;;5010029;28;20453;-66
2023/06/05 08:04:30;;;;;;;8.40;7.45;;;22.00;90.60;;;;;;4991089;28;20042;-67
2023/06/05 08:06:58;;;;;;;9.88;7.30;;;22.10;90.70;;;;;;4975189;28;20103;-67
2023/06/05 08:09:25;;;;;;;11.95;9.13;;;22.10;90.50;;;;;;4993650;28;20057;-66
2023/06/05 08:11:53;;;;;;;11.75;8.02;;;22.10;90.40;;;;;;4992701;28;20065;-68
2023/06/05 08:14:20;;;;;;;9.27;7.60;;;22.20;90.40;;;;;;4990698;28;20050;-66
2023/06/05 08:16:48;;;;;;;10.30;7.63;;;22.30;90.10;;;;;;5008892;28;20074;-66
2023/06/05 08:19:15;;;;;;;8.18;7.38;;;22.20;89.80;;;;;;4976059;28;20099;-69
2023/06/05 08:21:43;;;;;;;8.38;7.45;;;22.40;89.80;;;;;;5007837;28;20041;-70
2023/06/05 08:24:10;;;;;;;11.45;9.40;;;22.30;89.70;;;;;;4993929;28;20038;-69
2023/06/05 08:26:38;;;;;;;8.32;7.63;;;22.30;89.60;;;;;;5014944;28;20132;-70
2023/06/05 08:29:06;;;;;;;10.63;7.70;;;22.30;89.80;;;;;;5014963;28;20034;-70
2023/06/05 08:31:36;;;;;;;8.68;7.88;;;22.20;90.30;;;;;;5006631;28;20069;-71
2023/06/05 08:34:07;;;;;;;9.50;7.60;;;22.20;90.60;;;;;;5013316;28;20038;-69
2023/06/05 08:36:35;;;;;;;12.17;8.17;;;22.30;90.70;;;;;;5012716;28;20096;-70
2023/06/05 08:39:03;;;;;;;9.20;7.80;;;22.30;90.70;;;;;;5012915;28;20061;-69
2023/06/05 08:41:32;;;;;;;9.40;7.72;;;22.30;90.60;;;;;;4993335;28;20121;-69
2023/06/05 08:44:00;;;;;;;8.50;7.70;;;22.40;90.70;;;;;;5000976;28;20100;-67
2023/06/05 08:46:30;;;;;;;10.57;8.63;;;22.40;90.70;;;;;;4992567;28;20045;-69
2023/06/05 08:49:06;;;;;;;11.75;8.60;;;22.40;90.80;;;;;;5011568;28;20074;-68
2023/06/05 08:51:33;;;;;;;14.10;9.40;;;22.50;90.90;;;;;;5011442;28;20122;-71
2023/06/05 08:54:12;;;;;;;13.63;9.00;;;22.60;90.80;;;;;;5002197;28;20061;-70
2023/06/05 08:56:41;;;;;;;14.18;8.90;;;22.60;90.80;;;;;;4999114;28;20057;-69
2023/06/05 08:59:14;;;;;;;10.02;8.32;;;22.70;91.00;;;;;;4962830;28;20517;-69
2023/06/05 09:01:43;;;;;;;13.55;8.48;;;22.80;90.90;;;;;;4998334;28;20060;-68
2023/06/05 09:04:11;;;;;;;11.85;9.43;;;22.90;91.20;;;;;;4983660;28;20108;-70
2023/06/05 09:06:40;;;;;;;10.07;8.65;;;23.10;91.30;;;;;;5008747;28;20092;-70
2023/06/05 09:09:09;;;;;;;15.38;11.40;;;23.20;91.00;;;;;;4984425;28;20557;-70
2023/06/05 09:11:38;;;;;;;9.82;8.82;;;23.30;91.10;;;;;;5003465;28;20049;-69
2023/06/05 09:14:06;;;;;;;12.15;9.23;;;23.40;91.10;;;;;;4977490;28;20046;-70
2023/06/05 09:16:40;;;;;;;10.75;9.68;;;23.50;90.80;;;;;;5020838;28;20564;-68
2023/06/05 09:19:10;;;;;;;11.52;9.45;;;23.50;90.80;;;;;;4987067;28;20057;-68
2023/06/05 09:21:39;;;;;;;16.20;11.05;;;23.60;90.70;;;;;;5009653;28;20583;-69
2023/06/05 09:24:11;;;;;;;9.75;8.77;;;23.80;90.80;;;;;;4998127;28;20131;-69
2023/06/05 09:26:51;;;;;;;10.30;9.30;;;23.90;90.70;;;;;;4995290;28;20444;-69
2023/06/05 09:29:21;;;;;;;10.65;9.60;;;24.00;90.30;;;;;;5023393;28;20558;-68
2023/06/05 09:31:50;;;;;;;9.95;8.95;;;24.10;90.40;;;;;;5000363;28;20418;-69
2023/06/05 09:34:22;;;;;;;10.05;9.05;;;24.30;90.10;;;;;;4994894;28;20099;-69
2023/06/05 09:36:51;;;;;;;11.27;9.00;;;24.40;90.00;;;;;;5013349;28;20182;-69
2023/06/05 09:39:21;;;;;;;11.27;9.45;;;24.60;89.20;;;;;;5028033;28;20030;-69
2023/06/05 09:41:51;;;;;;;9.65;8.68;;;24.60;89.50;;;;;;5009825;28;20033;-70
2023/06/05 09:44:20;;;;;;;10.65;9.60;;;24.60;88.10;;;;;;5002642;28;20123;-69
2023/06/05 09:46:54;;;;;;;11.02;9.15;;;24.80;87.90;;;;;;5016686;28;20034;-70
2023/06/05 09:49:25;;;;;;;10.77;9.68;;;25.00;87.40;;;;;;4979075;28;20130;-70
2023/06/05 09:51:54;;;;;;;11.23;8.82;;;25.20;87.30;;;;;;4997115;28;20037;-70
2023/06/05 09:54:24;;;;;;;10.85;9.15;;;25.50;85.80;;;;;;4988087;28;20046;-70
2023/06/05 09:56:58;;;;;;;12.55;9.57;;;25.50;85.40;;;;;;4995000;28;20041;-70
2023/06/05 09:59:33;;;;;;;13.40;9.52;;;25.70;85.10;;;;;;4987031;28;20523;-70
2023/06/05 10:02:05;;;;;;;10.45;9.35;;;25.80;84.40;;;;;;4994192;28;20128;-70
2023/06/05 10:04:41;;;;;;;11.07;8.57;;;26.10;83.00;;;;;;5010725;28;20042;-71
2023/06/05 10:07:09;;;;;;;9.40;8.45;;;26.20;82.70;;;;;;5003717;28;20044;-69
2023/06/05 10:09:37;;;;;;;9.52;8.52;;;26.30;81.90;;;;;;4978266;28;20042;-70
2023/06/05 10:12:07;;;;;;;10.23;8.90;;;26.50;82.00;;;;;;5017610;28;20038;-70
2023/06/05 10:14:36;;;;;;;10.50;8.52;;;26.50;80.80;;;;;;5016524;28;20413;-69
2023/06/05 10:17:03;;;;;;;12.55;8.82;;;26.50;80.70;;;;;;4993837;28;20084;-69
2023/06/05 10:19:32;;;;;;;11.35;9.13;;;26.70;80.80;;;;;;5000622;28;20034;-70
2023/06/05 10:22:01;;;;;;;12.65;8.82;;;27.00;80.30;;;;;;4975572;28;20042;-70
2023/06/05 10:24:34;;;;;;;10.55;8.05;;;27.40;79.80;;;;;;5001750;28;20129;-70
2023/06/05 10:27:14;;;;;;;9.85;8.82;;;27.20;79.00;;;;;;5014418;28;20096;-70
2023/06/05 10:30:18;;;;;;;13.95;8.57;;;27.30;79.60;;;;;;5001055;28;20042;-70
2023/06/05 10:33:03;;;;;;;13.48;9.95;;;27.40;79.10;;;;;;5005486;28;20034;-70
2023/06/05 10:35:47;;;;;;;9.68;8.23;;;27.70;78.50;;;;;;4986402;28;20150;-70
2023/06/05 10:38:20;;;;;;;9.55;8.52;;;27.70;77.70;;;;;;5013351;28;20547;-70
2023/06/05 10:41:01;;;;;;;11.20;8.52;;;28.00;77.20;;;;;;5023173;28;20078;-71
2023/06/05 10:43:31;;;;;;;10.82;8.38;;;28.00;77.10;;;;;;5015956;28;20049;-70
2023/06/05 10:46:38;;;;;;;12.20;8.95;;;28.00;77.00;;;;;;5019175;28;20607;-70
2023/06/05 10:49:17;;;;;;;9.43;8.43;;;28.10;75.90;;;;;;4993662;28;20120;-70
2023/06/05 10:51:53;;;;;;;11.55;8.25;;;28.10;75.90;;;;;;4998113;28;20077;-70
2023/06/05 10:54:24;;;;;;;8.70;7.80;;;28.10;75.70;;;;;;5001382;28;20056;-70
2023/06/05 10:57:02;;;;;;;8.07;7.28;;;28.30;75.60;;;;;;4990409;28;20050;-70
2023/06/05 10:59:33;;;;;;;10.45;7.68;;;28.80;74.80;;;;;;4996912;28;20120;-71
2023/06/05 11:02:11;;;;;;;9.52;7.47;;;28.80;74.60;;;;;;4996417;28;20065;-70
2023/06/05 11:04:47;;;;;;;8.18;7.47;;;28.80;74.40;;;;;;4992301;28;20311;-70
2023/06/05 11:07:27;;;;;;;8.48;7.32;;;29.30;73.50;;;;;;5008311;28;20053;-70
2023/06/05 11:10:07;;;;;;;7.78;7.05;;;29.60;72.70;;;;;;4987200;28;20124;-70
2023/06/05 11:12:35;;;;;;;8.70;7.80;;;30.00;71.80;;;;;;5008471;28;20104;-71
2023/06/05 11:15:04;;;;;;;11.30;8.23;;;30.30;70.80;;;;;;5009074;28;20080;-70
2023/06/05 11:17:34;;;;;;;9.40;7.90;;;30.50;70.10;;;;;;4994180;28;20552;-69
2023/06/05 11:20:09;;;;;;;8.73;7.82;;;30.90;68.80;;;;;;5010796;28;20132;-69
2023/06/05 11:22:52;;;;;;;8.95;7.82;;;30.90;69.00;;;;;;5011007;28;20038;-71
2023/06/05 11:25:21;;;;;;;7.93;7.22;;;30.90;68.20;;;;;;4993858;28;20140;-70
2023/06/05 11:27:54;;;;;;;8.35;7.47;;;31.00;67.10;;;;;;4993721;28;20041;-70
2023/06/05 11:30:38;;;;;;;9.87;7.50;;;30.90;67.50;;;;;;5008823;28;20501;-70
2023/06/05 11:33:20;;;;;;;10.77;7.50;;;31.40;67.10;;;;;;4975316;28;20441;-71
2023/06/05 11:35:50;;;;;;;8.27;7.47;;;31.90;66.20;;;;;;4993062;28;20117;-70
2023/06/05 11:38:22;;;;;;;9.77;7.88;;;32.00;66.00;;;;;;5009888;28;20050;-71
2023/06/05 11:40:52;;;;;;;9.10;7.45;;;32.30;65.60;;;;;;4993046;28;20049;-70
2023/06/05 11:43:21;;;;;;;8.32;7.30;;;32.40;64.90;;;;;;4992907;28;20041;-68
2023/06/05 11:45:52;;;;;;;7.72;6.90;;;31.90;64.90;;;;;;4973396;28;20037;-68
2023/06/05 11:48:20;;;;;;;10.02;6.88;;;32.40;64.80;;;;;;4976563;28;20041;-68
2023/06/05 11:50:57;;;;;;;7.72;6.80;;;32.50;64.80;;;;;;5011236;28;20061;-68
2023/06/05 11:53:29;;;;;;;7.60;6.90;;;32.10;64.80;;;;;;5005722;28;20201;-69
2023/06/05 11:58:36;;;;;;;11.43;9.32;;;31.80;65.10;;;;;;4978891;28;20054;-68
2023/06/05 12:01:21;;;;;;;7.97;6.72;;;31.50;65.90;;;;;;5017152;28;20050;-68
2023/06/05 12:04:05;;;;;;;7.60;6.78;;;30.90;65.90;;;;;;5010633;28;20064;-69
2023/06/05 12:06:43;;;;;;;6.68;6.13;;;30.50;67.10;;;;;;5015038;28;20034;-69
2023/06/05 12:09:13;;;;;;;7.97;6.57;;;31.30;66.40;;;;;;4998727;28;20046;-68
2023/06/05 12:11:43;;;;;;;7.30;6.65;;;31.90;64.50;;;;;;5005200;28;20065;-68
2023/06/05 12:14:28;;;;;;;13.98;6.43;;;32.30;65.00;;;;;;5003770;28;20085;-69
2023/06/05 12:16:56;;;;;;;7.57;6.30;;;32.80;64.30;;;;;;4996582;28;20050;-68
2023/06/05 12:19:27;;;;;;;7.38;6.68;;;33.70;63.30;;;;;;5016291;28;20077;-69
2023/06/05 12:22:04;;;;;;;8.32;6.80;;;34.00;62.00;;;;;;4999678;28;20038;-68
2023/06/05 12:24:32;;;;;;;7.15;6.53;;;34.20;61.20;;;;;;4964058;28;20042;-68
2023/06/05 12:27:03;;;;;;;7.28;6.60;;;34.00;60.80;;;;;;5014099;28;20037;-68
2023/06/05 12:29:38;;;;;;;7.45;6.45;;;34.70;59.60;;;;;;4999071;28;20038;-69
2023/06/05 12:32:25;;;;;;;7.53;6.75;;;34.60;59.80;;;;;;4999203;28;20481;-69
2023/06/05 12:34:54;;;;;;;7.85;7.00;;;34.30;59.00;;;;;;5012864;28;20079;-68
2023/06/05 12:37:38;;;;;;;6.90;6.30;;;33.90;59.00;;;;;;4998845;28;20046;-69
2023/06/05 12:40:10;;;;;;;6.90;6.30;;;33.00;59.90;;;;;;4998816;28;20081;-68
2023/06/05 12:42:43;;;;;;;7.05;6.40;;;32.20;61.10;;;;;;4999626;28;20038;-69
2023/06/05 12:45:12;;;;;;;7.90;7.20;;;32.10;62.70;;;;;;4999182;28;20048;-69
2023/06/05 12:47:40;;;;;;;6.82;6.22;;;32.60;61.30;;;;;;4998920;28;20062;-68
2023/06/05 12:50:11;;;;;;;6.68;6.07;;;33.50;60.30;;;;;;5006106;28;20529;-68
2023/06/05 12:52:40;;;;;;;7.03;6.40;;;34.10;58.10;;;;;;5015388;28;20140;-68
2023/06/05 12:55:09;;;;;;;6.32;5.82;;;35.20;56.50;;;;;;5015202;28;20042;-68
2023/06/05 12:57:37;;;;;;;8.40;6.22;;;36.00;55.10;;;;;;4997073;28;20133;-67
2023/06/05 13:00:18;;;;;;;6.35;5.85;;;36.20;54.80;;;;;;5016912;28;20489;-68
2023/06/05 13:02:47;;;;;;;7.00;6.40;;;36.70;54.00;;;;;;4995851;28;20049;-68